createdAt,value
2022-11-12T00:02:28.282Z,76.38
2022-11-12T00:04:57.757Z,76.22
2022-11-12T00:07:29.837Z,76.25
2022-11-12T00:09:59.336Z,75.86
2022-11-12T00:12:28.921Z,75.93
2022-11-12T00:14:58.400Z,75.84
2022-11-12T00:17:28.211Z,75.47
2022-11-12T00:19:57.704Z,75.76
2022-11-12T00:22:29.873Z,75.69
2022-11-12T00:24:59.304Z,75.38
2022-11-12T00:27:28.749Z,74.78
2022-11-12T00:29:58.200Z,74.86
2022-11-12T00:32:27.692Z,74.82
2022-11-12T00:34:59.279Z,74.47
2022-11-12T00:37:34.475Z,75.07
2022-11-12T00:40:03.895Z,74.40
2022-11-12T00:42:33.360Z,75.04
2022-11-12T00:45:02.836Z,74.82
2022-11-12T00:47:32.299Z,74.65
2022-11-12T00:50:01.738Z,74.45
2022-11-12T00:52:33.782Z,74.75
2022-11-12T00:55:03.246Z,74.89
2022-11-12T00:57:32.712Z,74.87
2022-11-12T01:00:02.163Z,75.50
2022-11-12T01:02:32.350Z,75.68
2022-11-12T01:05:04.107Z,75.81
2022-11-12T01:07:36.162Z,75.78
2022-11-12T01:10:06.048Z,74.97
2022-11-12T01:12:35.499Z,74.67
2022-11-12T01:15:05.015Z,74.51
2022-11-12T01:17:34.485Z,74.95
2022-11-12T01:20:03.964Z,74.93
2022-11-12T01:22:38.512Z,75.02
2022-11-12T01:25:09.031Z,75.10
2022-11-12T01:27:38.452Z,74.69
2022-11-12T01:30:08.800Z,74.75
2022-11-12T01:32:39.135Z,74.93
2022-11-12T01:35:09.432Z,75.17
2022-11-12T01:37:41.467Z,75.40
2022-11-12T01:40:12.545Z,75.41
2022-11-12T01:42:41.822Z,75.08
2022-11-12T01:45:16.295Z,74.84
2022-11-12T01:47:45.785Z,74.71
2022-11-12T01:50:18.337Z,74.60
2022-11-12T01:52:51.716Z,74.55
2022-11-12T01:55:23.184Z,74.37
2022-11-12T01:57:54.731Z,74.45
2022-11-12T02:00:24.432Z,73.87
2022-11-12T02:02:55.813Z,74.21
2022-11-12T02:05:25.542Z,74.21
2022-11-12T02:07:57.560Z,74.92
2022-11-12T02:10:27.034Z,74.34
2022-11-12T02:13:09.034Z,74.39
2022-11-12T02:15:38.489Z,74.37
2022-11-12T02:18:08.112Z,74.40
2022-11-12T02:20:37.750Z,73.94
2022-11-12T02:23:10.071Z,73.94
2022-11-12T02:25:39.537Z,74.47
2022-11-12T02:28:09.890Z,74.52
2022-11-12T02:30:41.190Z,74.01
2022-11-12T02:33:10.678Z,74.26
2022-11-12T02:35:40.183Z,74.25
2022-11-12T02:38:12.288Z,74.67
2022-11-12T02:40:41.790Z,74.86
2022-11-12T02:43:11.242Z,74.32
2022-11-12T02:45:40.759Z,74.66
2022-11-12T02:48:13.957Z,74.48
2022-11-12T02:50:45.975Z,74.74
2022-11-12T02:53:18.018Z,74.40
2022-11-12T02:55:47.463Z,74.10
2022-11-12T02:58:16.951Z,74.44
2022-11-12T03:00:46.465Z,74.99
2022-11-12T03:03:15.934Z,74.99
2022-11-12T03:05:45.431Z,74.64
2022-11-12T03:08:14.902Z,74.58
2022-11-12T03:10:46.927Z,75.62
2022-11-12T03:13:16.378Z,75.92
2022-11-12T03:15:45.855Z,76.89
2022-11-12T03:18:15.339Z,76.19
2022-11-12T03:20:44.759Z,76.57
2022-11-12T03:23:14.181Z,77.00
2022-11-12T03:25:43.636Z,78.78
2022-11-12T03:28:16.603Z,81.33
2022-11-12T03:30:46.285Z,82.17
2022-11-12T03:33:17.202Z,82.50
2022-11-12T03:35:46.663Z,83.49
2022-11-12T03:38:16.133Z,83.33
2022-11-12T03:40:45.619Z,83.94
2022-11-12T03:43:17.653Z,84.56
2022-11-12T03:45:47.134Z,84.28
2022-11-12T03:48:16.567Z,84.26
2022-11-12T03:50:46.019Z,83.13
2022-11-12T03:53:15.604Z,81.44
2022-11-12T03:55:45.051Z,79.41
2022-11-12T03:58:17.070Z,80.19
2022-11-12T04:00:46.573Z,79.04
2022-11-12T04:03:16.046Z,77.67
2022-11-12T04:05:57.980Z,76.93
2022-11-12T04:08:39.906Z,77.94
2022-11-12T04:11:12.534Z,78.66
2022-11-12T04:13:47.469Z,79.61
2022-11-12T04:16:30.197Z,81.17
2022-11-12T04:19:13.238Z,81.23
2022-11-12T04:21:57.340Z,81.87
2022-11-12T04:24:40.612Z,81.22
2022-11-12T04:27:10.929Z,79.77
2022-11-12T04:29:55.423Z,80.69
2022-11-12T04:32:25.497Z,83.40
2022-11-12T04:34:55.182Z,85.53
2022-11-12T04:37:24.834Z,85.29
2022-11-12T04:39:54.380Z,85.15
2022-11-12T04:42:36.360Z,83.92
2022-11-12T04:45:09.044Z,82.71
2022-11-12T04:47:39.644Z,82.08
2022-11-12T04:50:11.544Z,81.32
2022-11-12T04:52:41.019Z,80.76
2022-11-12T04:55:11.483Z,81.11
2022-11-12T04:57:40.935Z,80.20
2022-11-12T05:00:14.575Z,78.71
2022-11-12T05:02:44.040Z,77.61
2022-11-12T05:05:13.488Z,76.82
2022-11-12T05:07:42.966Z,77.12
2022-11-12T05:10:12.458Z,76.70
2022-11-12T05:12:41.982Z,76.94
2022-11-12T05:15:14.528Z,80.06
2022-11-12T05:17:45.280Z,83.69
2022-11-12T05:20:14.889Z,86.10
2022-11-12T05:22:59.047Z,88.48
2022-11-12T05:25:33.796Z,89.06
2022-11-12T05:28:03.289Z,90.50
2022-11-12T05:30:35.354Z,90.54
2022-11-12T05:33:04.834Z,87.87
2022-11-12T05:35:34.303Z,86.61
2022-11-12T05:38:03.767Z,86.31
2022-11-12T05:40:33.215Z,85.82
2022-11-12T05:43:02.675Z,85.92
2022-11-12T05:45:34.708Z,85.07
2022-11-12T05:48:04.152Z,86.58
2022-11-12T05:50:51.285Z,87.59
2022-11-12T05:53:23.169Z,90.17
2022-11-12T05:55:52.623Z,89.16
2022-11-12T05:58:22.147Z,88.78
2022-11-12T06:00:54.184Z,88.21
2022-11-12T06:03:24.295Z,88.12
2022-11-12T06:05:53.771Z,89.98
2022-11-12T06:08:23.423Z,90.22
2022-11-12T06:10:53.202Z,89.54
2022-11-12T06:13:22.878Z,88.60
2022-11-12T06:15:55.036Z,88.41
2022-11-12T06:18:24.969Z,87.76
2022-11-12T06:21:07.018Z,87.21
2022-11-12T06:26:10.462Z,87.57
2022-11-12T06:28:39.975Z,88.48
2022-11-12T06:31:12.208Z,87.09
2022-11-12T06:33:41.981Z,87.69
2022-11-12T06:36:12.900Z,86.67
2022-11-12T06:38:42.945Z,83.86
2022-11-12T06:41:13.037Z,81.30
2022-11-12T06:43:42.873Z,80.11
2022-11-12T06:46:15.867Z,79.12
2022-11-12T06:48:45.617Z,78.55
2022-11-12T06:51:22.326Z,78.45
2022-11-12T06:53:52.165Z,77.58
2022-11-12T06:56:21.642Z,76.97
2022-11-12T06:58:51.113Z,77.48
2022-11-12T07:01:23.684Z,76.73
2022-11-12T07:03:54.311Z,76.16
2022-11-12T07:06:23.858Z,76.68
2022-11-12T07:08:53.373Z,76.85
2022-11-12T07:11:22.965Z,77.74
2022-11-12T07:13:52.431Z,76.91
2022-11-12T07:16:24.496Z,77.30
2022-11-12T07:18:53.972Z,77.16
2022-11-12T07:21:23.696Z,76.67
2022-11-12T07:23:53.192Z,76.38
2022-11-12T07:26:23.454Z,76.34
2022-11-12T07:28:53.388Z,76.55
2022-11-12T07:31:25.873Z,77.86
2022-11-12T07:33:55.372Z,77.17
2022-11-12T07:36:24.953Z,76.23
2022-11-12T07:38:55.104Z,75.95
2022-11-12T07:41:25.222Z,75.48
2022-11-12T07:43:55.511Z,75.82
2022-11-12T07:46:28.637Z,75.83
2022-11-12T07:48:58.392Z,76.13
2022-11-12T07:51:28.788Z,75.93
2022-11-12T07:53:59.968Z,76.29
2022-11-12T07:56:29.908Z,75.82
2022-11-12T07:58:59.425Z,75.67
2022-11-12T08:01:32.644Z,75.85
2022-11-12T08:04:02.482Z,75.67
2022-11-12T08:06:32.543Z,75.72
2022-11-12T08:09:06.412Z,75.88
2022-11-12T08:11:36.048Z,74.42
2022-11-12T08:14:05.836Z,74.23
2022-11-12T08:16:37.946Z,73.56
2022-11-12T08:19:07.472Z,73.64
2022-11-12T08:21:37.143Z,74.13
2022-11-12T08:24:06.900Z,74.40
2022-11-12T08:26:36.610Z,74.31
2022-11-12T08:29:08.681Z,74.81
2022-11-12T08:31:41.135Z,75.76
2022-11-12T08:34:22.333Z,76.03
2022-11-12T08:36:52.237Z,75.91
2022-11-12T08:39:21.779Z,75.53
2022-11-12T08:41:51.309Z,74.93
2022-11-12T08:44:20.829Z,74.67
2022-11-12T08:46:53.136Z,74.51
2022-11-12T08:49:22.628Z,74.63
2022-11-12T08:51:52.084Z,73.80
2022-11-12T08:54:21.574Z,76.64
2022-11-12T08:56:51.036Z,79.51
2022-11-12T08:59:20.521Z,79.80
2022-11-12T09:01:52.609Z,77.78
2022-11-12T09:04:22.209Z,77.38
2022-11-12T09:06:54.039Z,75.84
2022-11-12T09:09:23.960Z,74.61
2022-11-12T09:11:53.420Z,74.65
2022-11-12T09:14:23.123Z,74.85
2022-11-12T09:16:55.228Z,75.61
2022-11-12T09:19:24.723Z,75.22
2022-11-12T09:21:54.200Z,74.53
2022-11-12T09:24:23.672Z,76.03
2022-11-12T09:26:55.660Z,75.85
2022-11-12T09:29:25.286Z,76.14
2022-11-12T09:31:59.589Z,75.80
2022-11-12T09:34:29.323Z,75.56
2022-11-12T09:36:58.976Z,75.61
2022-11-12T09:39:28.584Z,76.39
2022-11-12T09:42:01.905Z,78.74
2022-11-12T09:44:36.540Z,78.05
2022-11-12T09:47:10.692Z,76.99
2022-11-12T09:49:41.927Z,76.00
2022-11-12T09:52:15.227Z,75.38
2022-11-12T09:54:44.772Z,77.08
2022-11-12T09:57:14.267Z,79.55
2022-11-12T09:59:44.397Z,80.07
2022-11-12T10:02:25.853Z,82.10
2022-11-12T10:05:02.643Z,83.88
2022-11-12T10:07:40.182Z,81.91
2022-11-12T10:10:12.895Z,81.41
2022-11-12T10:12:49.494Z,83.66
2022-11-12T10:15:51.960Z,83.55
2022-11-12T10:18:31.549Z,81.75
2022-11-12T10:21:03.077Z,80.85
2022-11-12T10:23:35.390Z,80.09
2022-11-12T10:26:05.078Z,79.91
2022-11-12T10:28:38.894Z,79.80
2022-11-12T10:31:13.518Z,80.20
2022-11-12T10:33:45.575Z,80.39
2022-11-12T10:36:21.950Z,79.24
2022-11-12T10:38:52.958Z,78.39
2022-11-12T10:41:24.421Z,78.86
2022-11-12T10:43:56.547Z,78.10
2022-11-12T10:46:27.164Z,77.56
2022-11-12T10:49:01.345Z,77.31
2022-11-12T10:51:33.258Z,76.98
2022-11-12T10:54:04.763Z,79.69
2022-11-12T10:56:34.952Z,79.59
2022-11-12T10:59:12.300Z,78.52
2022-11-12T11:01:45.477Z,76.81
2022-11-12T11:04:25.817Z,76.69
2022-11-12T11:07:01.725Z,75.55
2022-11-12T11:09:34.008Z,74.42
2022-11-12T11:12:03.547Z,73.52
2022-11-12T11:14:34.665Z,73.29
2022-11-12T11:17:08.420Z,71.90
2022-11-12T11:19:44.508Z,72.49
2022-11-12T11:22:23.904Z,74.07
2022-11-12T11:25:13.407Z,75.54
2022-11-12T11:27:44.975Z,75.59
2022-11-12T11:30:15.514Z,75.78
2022-11-12T11:33:00.858Z,75.65
2022-11-12T11:35:36.775Z,75.44
2022-11-12T11:38:27.375Z,74.17
2022-11-12T11:41:01.648Z,74.06
2022-11-12T11:43:49.445Z,74.07
2022-11-12T11:46:23.191Z,73.61
2022-11-12T11:49:04.255Z,74.38
2022-11-12T11:51:42.692Z,74.18
2022-11-12T11:54:21.049Z,72.67
2022-11-12T11:56:50.743Z,71.88
2022-11-12T11:59:25.907Z,72.29
2022-11-12T12:02:03.814Z,73.39
2022-11-12T12:04:42.410Z,76.90
2022-11-12T12:07:19.821Z,78.86
2022-11-12T12:09:51.674Z,81.77
2022-11-12T12:12:27.448Z,83.75
2022-11-12T12:14:59.961Z,83.86
2022-11-12T12:17:36.874Z,82.92
2022-11-12T12:20:11.625Z,82.03
2022-11-12T12:22:44.776Z,80.01
2022-11-12T12:25:16.366Z,78.49
2022-11-12T12:27:50.303Z,78.07
2022-11-12T12:30:22.604Z,80.96
2022-11-12T12:32:55.106Z,82.35
2022-11-12T12:35:26.836Z,81.11
2022-11-12T12:38:02.026Z,79.46
2022-11-12T12:40:35.383Z,77.68
2022-11-12T12:43:07.475Z,77.51
2022-11-12T12:45:41.233Z,77.92
2022-11-12T12:48:15.812Z,80.48
2022-11-12T12:50:45.569Z,79.98
2022-11-12T12:53:33.467Z,80.32
2022-11-12T12:56:03.997Z,80.11
2022-11-12T12:58:34.286Z,80.45
2022-11-12T13:01:05.189Z,79.35
2022-11-12T13:03:51.968Z,77.76
2022-11-12T13:06:29.112Z,76.94
2022-11-12T13:09:03.222Z,76.98
2022-11-12T13:12:03.759Z,77.93
2022-11-12T13:15:03.075Z,78.58
2022-11-12T13:17:46.300Z,77.74
2022-11-12T13:20:34.984Z,76.94
2022-11-12T13:23:04.500Z,75.69
2022-11-12T13:25:36.670Z,75.49
2022-11-12T13:28:14.361Z,74.24
2022-11-12T13:31:00.624Z,73.56
2022-11-12T13:33:34.776Z,73.69
2022-11-12T13:36:20.881Z,73.42
2022-11-12T13:38:50.372Z,73.92
2022-11-12T13:41:42.954Z,76.19
2022-11-12T13:44:15.825Z,78.64
2022-11-12T13:46:45.278Z,80.34
2022-11-12T13:49:15.868Z,80.19
2022-11-12T13:51:46.651Z,79.45
2022-11-12T13:54:37.498Z,78.41
2022-11-12T13:57:29.748Z,75.45
2022-11-12T14:00:27.487Z,74.14
2022-11-12T14:02:58.606Z,73.42
2022-11-12T14:05:28.171Z,72.53
2022-11-12T14:08:19.180Z,71.78
2022-11-12T14:10:50.075Z,71.63
2022-11-12T14:13:51.876Z,71.48
2022-11-12T14:16:28.797Z,71.57
2022-11-12T14:19:43.416Z,71.33
2022-11-12T14:22:17.241Z,71.46
2022-11-12T14:24:48.257Z,71.47
2022-11-12T14:27:35.023Z,71.17
2022-11-12T14:30:14.289Z,72.00
2022-11-12T14:32:44.845Z,72.14
2022-11-12T14:35:28.385Z,71.96
2022-11-12T14:37:59.847Z,72.46
2022-11-12T14:40:30.425Z,72.21
2022-11-12T14:42:59.919Z,72.11
2022-11-12T14:45:35.119Z,72.88
2022-11-12T14:48:04.947Z,73.28
2022-11-12T14:50:40.411Z,72.77
2022-11-12T14:53:14.328Z,72.16
2022-11-12T14:55:44.390Z,71.51
2022-11-12T14:58:15.099Z,71.34
2022-11-12T15:00:48.014Z,70.73
2022-11-12T15:03:18.429Z,71.27
2022-11-12T15:06:01.918Z,70.95
2022-11-12T15:08:32.899Z,70.90
2022-11-12T15:11:24.310Z,70.23
2022-11-12T15:13:54.100Z,70.32
2022-11-12T15:16:27.513Z,70.51
2022-11-12T15:19:16.915Z,70.52
2022-11-12T15:21:50.796Z,71.31
2022-11-12T15:24:22.561Z,72.05
2022-11-12T15:26:53.487Z,72.32
2022-11-12T15:29:28.478Z,73.77
2022-11-12T15:32:02.273Z,75.61
2022-11-12T15:34:48.313Z,77.10
2022-11-12T15:37:24.212Z,78.53
2022-11-12T15:39:54.541Z,80.45
2022-11-12T15:42:27.212Z,79.98
2022-11-12T15:45:00.429Z,78.16
2022-11-12T15:47:32.550Z,77.00
2022-11-12T15:50:02.095Z,75.65
2022-11-12T15:52:32.539Z,74.61
2022-11-12T15:55:01.988Z,74.28
2022-11-12T15:57:32.393Z,73.72
2022-11-12T16:00:07.768Z,73.54
2022-11-12T16:02:40.638Z,73.75
2022-11-12T16:05:15.503Z,73.45
2022-11-12T16:07:44.967Z,74.91
2022-11-12T16:10:15.756Z,75.25
2022-11-12T16:12:45.469Z,74.62
2022-11-12T16:15:18.384Z,73.82
2022-11-12T16:17:50.808Z,73.21
2022-11-12T16:20:21.612Z,73.10
2022-11-12T16:22:51.230Z,72.64
2022-11-12T16:25:20.800Z,72.56
2022-11-12T16:27:55.562Z,72.44
2022-11-12T16:30:26.336Z,72.95
2022-11-12T16:32:59.649Z,72.98
2022-11-12T16:35:29.818Z,72.96
2022-11-12T16:37:59.439Z,72.50
2022-11-12T16:40:29.856Z,72.79
2022-11-12T16:42:59.439Z,72.33
2022-11-12T16:45:34.934Z,72.89
2022-11-12T16:48:09.937Z,72.79
2022-11-12T16:50:39.473Z,72.78
2022-11-12T16:53:09.036Z,72.88
2022-11-12T16:55:38.517Z,72.75
2022-11-12T16:58:07.996Z,72.37
2022-11-12T17:00:37.701Z,72.47
2022-11-12T17:03:11.573Z,73.17
2022-11-12T17:05:41.072Z,72.94
2022-11-12T17:08:11.482Z,72.85
2022-11-12T17:10:41.110Z,72.28
2022-11-12T17:13:11.846Z,72.09
2022-11-12T17:15:41.317Z,72.18
2022-11-12T17:18:13.364Z,71.76
2022-11-12T17:20:46.029Z,71.81
2022-11-12T17:23:19.428Z,71.67
2022-11-12T17:25:48.888Z,72.10
2022-11-12T17:28:18.347Z,72.25
2022-11-12T17:30:47.856Z,71.38
2022-11-12T17:33:19.880Z,71.83
2022-11-12T17:35:49.380Z,71.62
2022-11-12T17:38:18.850Z,71.80
2022-11-12T17:40:48.369Z,71.92
2022-11-12T17:43:17.864Z,72.10
2022-11-12T17:45:52.226Z,72.44
2022-11-12T17:48:24.672Z,72.43
2022-11-12T17:50:54.466Z,72.30
2022-11-12T17:53:24.043Z,72.36
2022-11-12T17:55:59.013Z,72.23
2022-11-12T17:58:28.532Z,72.83
2022-11-12T18:00:58.477Z,73.66
2022-11-12T18:03:30.593Z,74.46
2022-11-12T18:06:00.482Z,74.03
2022-11-12T18:08:30.030Z,73.56
2022-11-12T18:10:59.551Z,73.62
2022-11-12T18:13:29.463Z,73.53
2022-11-12T18:15:59.252Z,73.15
2022-11-12T18:18:31.369Z,72.97
2022-11-12T18:21:00.874Z,72.93
2022-11-12T18:23:30.504Z,72.20
2022-11-12T18:26:00.071Z,71.84
2022-11-12T18:28:29.593Z,71.87
2022-11-12T18:31:02.074Z,71.53
2022-11-12T18:33:36.044Z,71.76
2022-11-12T18:36:06.209Z,71.95
2022-11-12T18:38:38.735Z,71.90
2022-11-12T18:41:09.569Z,72.03
2022-11-12T18:43:39.260Z,72.03
2022-11-12T18:46:09.238Z,71.99
2022-11-12T18:48:41.443Z,71.81
2022-11-12T18:51:14.853Z,72.05
2022-11-12T18:53:45.651Z,72.36
2022-11-12T18:56:15.895Z,71.94
2022-11-12T18:58:45.420Z,71.95
2022-11-12T19:01:15.965Z,71.92
2022-11-12T19:03:48.252Z,72.02
2022-11-12T19:06:17.887Z,71.82
2022-11-12T19:08:47.370Z,72.22
2022-11-12T19:11:18.686Z,71.75
2022-11-12T19:13:48.178Z,71.63
2022-11-12T19:16:18.842Z,71.83
2022-11-12T19:18:51.460Z,71.64
2022-11-12T19:21:22.133Z,71.56
2022-11-12T19:23:54.412Z,71.66
2022-11-12T19:26:25.162Z,72.16
2022-11-12T19:28:54.709Z,72.05
2022-11-12T19:31:25.883Z,72.24
2022-11-12T19:33:57.670Z,72.06
2022-11-12T19:36:28.040Z,72.73
2022-11-12T19:38:58.318Z,72.73
2022-11-12T19:41:28.107Z,72.46
2022-11-12T19:43:57.600Z,72.50
2022-11-12T19:46:27.427Z,72.53
2022-11-12T19:48:59.696Z,72.60
2022-11-12T19:51:30.866Z,72.56
2022-11-12T19:54:00.092Z,72.51
2022-11-12T19:56:30.607Z,72.20
2022-11-12T19:59:00.209Z,72.16
2022-11-12T20:01:29.823Z,72.40
2022-11-12T20:04:01.923Z,72.82
2022-11-12T20:06:31.716Z,72.80
2022-11-12T20:09:01.398Z,72.52
2022-11-12T20:11:30.956Z,72.44
2022-11-12T20:14:00.664Z,72.88
2022-11-12T20:16:30.177Z,72.93
2022-11-12T20:19:02.515Z,73.30
2022-11-12T20:21:32.056Z,73.53
2022-11-12T20:24:01.617Z,74.77
2022-11-12T20:26:31.132Z,76.07
2022-11-12T20:29:00.641Z,77.22
2022-11-12T20:31:30.220Z,77.21
2022-11-12T20:34:02.300Z,76.49
2022-11-12T20:36:31.999Z,76.46
2022-11-12T20:39:02.219Z,76.87
2022-11-12T20:41:31.719Z,77.04
2022-11-12T20:44:02.673Z,78.47
2022-11-12T20:46:32.574Z,77.89
2022-11-12T20:49:06.570Z,77.37
2022-11-12T20:51:36.374Z,77.24
2022-11-12T20:54:06.024Z,77.46
2022-11-12T20:56:35.583Z,77.68
2022-11-12T20:59:05.111Z,77.97
2022-11-12T21:01:34.635Z,78.93
2022-11-12T21:04:07.044Z,80.05
2022-11-12T21:06:36.576Z,78.65
2022-11-12T21:09:06.610Z,77.26
2022-11-12T21:11:36.129Z,75.59
2022-11-12T21:14:05.632Z,74.92
2022-11-12T21:16:35.272Z,74.48
2022-11-12T21:19:07.457Z,74.57
2022-11-12T21:21:36.970Z,75.67
2022-11-12T21:24:06.744Z,76.80
2022-11-12T21:26:36.242Z,78.17
2022-11-12T21:29:07.120Z,77.38
2022-11-12T21:31:36.631Z,76.52
2022-11-12T21:34:08.973Z,76.07
2022-11-12T21:36:38.488Z,76.05
2022-11-12T21:39:10.112Z,75.30
2022-11-12T21:41:39.621Z,76.43
2022-11-12T21:44:09.594Z,77.03
2022-11-12T21:46:40.412Z,76.26
2022-11-12T21:49:12.640Z,75.98
2022-11-12T21:51:42.132Z,75.94
2022-11-12T21:54:11.619Z,76.22
2022-11-12T21:56:42.062Z,76.16
2022-11-12T21:59:11.558Z,75.29
2022-11-12T22:01:41.493Z,75.32
2022-11-12T22:04:18.108Z,76.35
2022-11-12T22:06:48.057Z,75.98
2022-11-12T22:09:17.594Z,78.18
2022-11-12T22:11:47.093Z,78.51
2022-11-12T22:14:16.583Z,78.25
2022-11-12T22:16:46.060Z,77.39
2022-11-12T22:19:21.404Z,78.81
2022-11-12T22:21:51.063Z,79.90
2022-11-12T22:24:20.689Z,79.09
2022-11-12T22:26:50.247Z,77.65
2022-11-12T22:29:19.733Z,76.90
2022-11-12T22:31:49.254Z,77.87
2022-11-12T22:34:21.364Z,78.50
2022-11-12T22:36:50.877Z,78.29
2022-11-12T22:39:20.364Z,77.81
2022-11-12T22:41:49.844Z,77.90
2022-11-12T22:44:19.347Z,77.67
2022-11-12T22:46:48.840Z,76.59
2022-11-12T22:49:20.899Z,76.27
2022-11-12T22:51:50.378Z,76.97
2022-11-12T22:54:20.013Z,76.81
2022-11-12T22:56:49.496Z,76.72
2022-11-12T22:59:18.991Z,76.24
2022-11-12T23:01:48.589Z,75.96
2022-11-12T23:04:20.749Z,76.33
2022-11-12T23:06:50.287Z,75.94
2022-11-12T23:09:20.058Z,75.40
2022-11-12T23:11:49.557Z,74.84
2022-11-12T23:14:19.035Z,74.39
2022-11-12T23:16:49.648Z,75.68
2022-11-12T23:19:21.716Z,76.17
2022-11-12T23:21:51.277Z,76.69
2022-11-12T23:24:20.832Z,76.53
2022-11-12T23:26:50.317Z,76.22
2022-11-12T23:29:19.808Z,75.82
2022-11-12T23:31:49.281Z,75.52
2022-11-12T23:34:21.468Z,75.33
2022-11-12T23:36:51.048Z,74.88
2022-11-12T23:39:20.545Z,74.03
2022-11-12T23:41:50.070Z,74.65
2022-11-12T23:44:19.605Z,74.34
2022-11-12T23:46:49.096Z,74.88
2022-11-12T23:49:21.193Z,75.00
2022-11-12T23:51:50.720Z,75.47
2022-11-12T23:54:20.211Z,75.30
2022-11-12T23:56:49.691Z,75.22
2022-11-12T23:59:19.241Z,74.61
